Time;durP1;ratioP1;P1;durP2;ratioP2;P2;SDS_P1;SDS_P2;PMS_P1;PMS_P2;Temp;Humidity;BMP_temperature;BMP_pressure;BME280_temperature;BME280_humidity;BME280_pressure;Samples;Min_cycle;Max_cycle;Signal;HPM_P1;HPM_P2
2021/09/24 00:00:35;;;;;;;23.27;3.67;;;;;;;;;;5063647;28;20504;-70
2021/09/24 00:03:01;;;;;;;22.30;3.80;;;;;;;;;;5038996;28;20477;-70
2021/09/24 00:05:27;;;;;;;29.23;4.43;;;;;;;;;;5040682;28;20033;-70
2021/09/24 00:07:54;;;;;;;24.20;3.90;;;;;;;;;;5041032;28;20097;-70
2021/09/24 00:10:20;;;;;;;26.17;4.63;;;;;;;;;;5059430;28;20083;-70
2021/09/24 00:12:47;;;;;;;20.85;4.13;;;;;;;;;;5024010;28;20114;-70
2021/09/24 00:15:15;;;;;;;22.00;3.58;;;;;;;;;;5040089;28;20044;-70
2021/09/24 00:17:41;;;;;;;21.92;3.83;;;;;;;;;;5063249;28;20036;-70
2021/09/24 00:20:08;;;;;;;24.73;4.50;;;;;;;;;;5042339;28;20041;-70
2021/09/24 00:22:34;;;;;;;20.52;3.60;;;;;;;;;;5056941;28;20425;-70
2021/09/24 00:25:00;;;;;;;21.77;3.63;;;;;;;;;;5039980;28;20124;-70
2021/09/24 00:27:26;;;;;;;26.00;3.72;;;;;;;;;;5053177;28;20131;-70
2021/09/24 00:29:53;;;;;;;22.50;3.85;;;;;;;;;;5042497;28;20050;-70
2021/09/24 00:32:21;;;;;;;21.55;3.53;;;;;;;;;;5063845;28;20496;-70
2021/09/24 00:35:06;;;;;;;21.55;3.83;;;;;;;;;;5041087;28;20171;-70
2021/09/24 00:37:33;;;;;;;16.70;3.00;;;;;;;;;;5041177;28;20045;-70
2021/09/24 00:39:59;;;;;;;23.17;3.60;;;;;;;;;;5036164;28;20508;-70
2021/09/24 00:42:25;;;;;;;20.70;3.40;;;;;;;;;;5036784;28;20070;-70
2021/09/24 00:44:52;;;;;;;25.83;3.97;;;;;;;;;;5040672;28;20079;-70
2021/09/24 00:47:20;;;;;;;18.35;3.47;;;;;;;;;;5040246;28;20120;-70
2021/09/24 00:49:47;;;;;;;24.25;3.95;;;;;;;;;;5040852;28;20047;-72
2021/09/24 00:52:14;;;;;;;17.08;3.45;;;;;;;;;;5042938;28;20048;-72
2021/09/24 00:54:41;;;;;;;21.63;4.07;;;;;;;;;;5040988;28;20504;-72
2021/09/24 00:57:07;;;;;;;19.60;3.47;;;;;;;;;;5057413;28;20028;-72
2021/09/24 00:59:34;;;;;;;27.00;3.67;;;;;;;;;;5042687;28;20052;-72
2021/09/24 01:02:00;;;;;;;20.45;4.38;;;;;;;;;;5042065;28;20530;-72
2021/09/24 01:04:26;;;;;;;21.42;3.20;;;;;;;;;;5042262;28;20127;-70
2021/09/24 01:06:52;;;;;;;19.70;3.78;;;;;;;;;;5040472;28;20066;-70
2021/09/24 01:09:19;;;;;;;20.92;3.65;;;;;;;;;;5060251;28;20040;-70
2021/09/24 01:11:45;;;;;;;18.48;3.15;;;;;;;;;;5045383;28;20052;-70
2021/09/24 01:14:11;;;;;;;25.05;3.40;;;;;;;;;;5042896;28;20403;-70
2021/09/24 01:16:37;;;;;;;19.48;4.00;;;;;;;;;;5037896;28;20045;-70
2021/09/24 01:19:04;;;;;;;19.63;3.83;;;;;;;;;;5061105;28;20279;-70
2021/09/24 01:21:31;;;;;;;20.92;5.40;;;;;;;;;;5058998;28;20059;-70
2021/09/24 01:23:57;;;;;;;15.10;2.58;;;;;;;;;;5039348;28;20044;-70
2021/09/24 01:26:24;;;;;;;25.67;3.83;;;;;;;;;;5042694;28;20044;-70
2021/09/24 01:28:50;;;;;;;30.73;4.03;;;;;;;;;;5057591;28;20045;-70
2021/09/24 01:31:19;;;;;;;16.08;3.22;;;;;;;;;;5059057;28;20365;-70
2021/09/24 01:33:46;;;;;;;17.10;3.70;;;;;;;;;;5061040;28;20072;-70
2021/09/24 01:36:12;;;;;;;20.33;3.38;;;;;;;;;;5060473;28;20044;-70
2021/09/24 01:38:39;;;;;;;21.38;4.20;;;;;;;;;;5036035;28;20109;-70
2021/09/24 01:41:05;;;;;;;25.50;3.97;;;;;;;;;;5044213;28;20049;-70
2021/09/24 01:43:32;;;;;;;20.90;3.35;;;;;;;;;;5058938;28;20059;-70
2021/09/24 01:45:58;;;;;;;19.02;3.92;;;;;;;;;;5057719;28;20056;-70
2021/09/24 01:48:25;;;;;;;17.13;3.05;;;;;;;;;;5036776;28;20080;-70
2021/09/24 01:50:51;;;;;;;22.25;5.63;;;;;;;;;;5038299;28;20041;-70
2021/09/24 01:53:17;;;;;;;27.88;3.88;;;;;;;;;;5042547;28;20056;-70
2021/09/24 01:55:43;;;;;;;20.02;3.25;;;;;;;;;;5044199;28;20115;-70
2021/09/24 01:58:09;;;;;;;19.15;4.32;;;;;;;;;;5040791;28;20093;-70
2021/09/24 02:00:36;;;;;;;19.17;3.85;;;;;;;;;;5058964;28;20040;-70
2021/09/24 02:03:02;;;;;;;24.85;4.15;;;;;;;;;;5061144;28;20041;-70
2021/09/24 02:05:28;;;;;;;23.60;3.10;;;;;;;;;;5040677;28;20104;-70
2021/09/24 02:07:54;;;;;;;26.25;4.07;;;;;;;;;;5040338;28;20055;-70
2021/09/24 02:10:20;;;;;;;20.02;4.00;;;;;;;;;;5045625;28;20033;-70
2021/09/24 02:12:47;;;;;;;20.67;3.55;;;;;;;;;;5042555;28;20045;-70
2021/09/24 02:15:15;;;;;;;27.38;4.70;;;;;;;;;;5024606;28;20123;-70
2021/09/24 02:17:41;;;;;;;18.88;3.53;;;;;;;;;;5056377;28;20056;-70
2021/09/24 02:20:07;;;;;;;30.23;3.92;;;;;;;;;;5047782;28;20413;-70
2021/09/24 02:22:33;;;;;;;23.45;4.40;;;;;;;;;;5061507;28;20072;-70
2021/09/24 02:25:00;;;;;;;28.08;4.72;;;;;;;;;;5041484;28;20052;-70
2021/09/24 02:27:26;;;;;;;22.85;4.72;;;;;;;;;;5045021;28;20261;-70
2021/09/24 02:29:52;;;;;;;23.13;5.07;;;;;;;;;;5061839;28;20049;-70
2021/09/24 02:32:18;;;;;;;22.27;4.03;;;;;;;;;;5062270;28;20051;-70
2021/09/24 02:34:44;;;;;;;19.88;3.67;;;;;;;;;;5039765;28;20174;-70
2021/09/24 02:37:11;;;;;;;20.25;5.18;;;;;;;;;;5059955;28;20056;-70
2021/09/24 02:39:37;;;;;;;24.52;4.05;;;;;;;;;;5062401;28;20127;-70
2021/09/24 02:42:03;;;;;;;20.23;3.85;;;;;;;;;;5060893;28;20063;-70
2021/09/24 02:44:29;;;;;;;21.23;4.70;;;;;;;;;;5043353;28;20044;-70
2021/09/24 02:46:55;;;;;;;25.38;3.95;;;;;;;;;;5061024;28;20445;-70
2021/09/24 02:49:22;;;;;;;22.48;3.92;;;;;;;;;;5040940;28;20469;-70
2021/09/24 02:51:48;;;;;;;18.25;3.45;;;;;;;;;;5042794;28;20307;-70
2021/09/24 02:54:14;;;;;;;19.50;3.40;;;;;;;;;;5042677;28;20036;-70
2021/09/24 02:56:40;;;;;;;24.52;3.92;;;;;;;;;;5046670;28;20048;-70
2021/09/24 02:59:06;;;;;;;31.15;4.00;;;;;;;;;;5061763;28;20107;-70
2021/09/24 03:01:34;;;;;;;21.42;4.03;;;;;;;;;;5062964;28;20163;-70
2021/09/24 03:04:00;;;;;;;19.15;3.22;;;;;;;;;;5041451;28;20053;-70
2021/09/24 03:06:26;;;;;;;16.25;3.45;;;;;;;;;;5045584;28;20045;-70
2021/09/24 03:08:52;;;;;;;20.30;3.35;;;;;;;;;;5027595;28;20060;-70
2021/09/24 03:11:19;;;;;;;14.05;2.85;;;;;;;;;;5042181;28;20425;-70
2021/09/24 03:13:45;;;;;;;13.98;2.63;;;;;;;;;;5041896;28;20397;-70
2021/09/24 03:16:12;;;;;;;18.30;4.32;;;;;;;;;;5042856;28;20047;-70
2021/09/24 03:18:38;;;;;;;20.48;3.45;;;;;;;;;;5037676;28;20048;-70
2021/09/24 03:21:04;;;;;;;24.52;4.05;;;;;;;;;;5058906;28;20178;-70
2021/09/24 03:23:30;;;;;;;14.70;2.90;;;;;;;;;;5058829;28;20052;-70
2021/09/24 03:25:57;;;;;;;23.27;3.53;;;;;;;;;;5062377;28;20047;-70
2021/09/24 03:28:23;;;;;;;24.08;3.50;;;;;;;;;;5024156;28;20539;-70
2021/09/24 03:30:49;;;;;;;18.90;3.35;;;;;;;;;;5044436;28;20040;-70
2021/09/24 03:33:16;;;;;;;14.95;3.45;;;;;;;;;;5037062;28;20068;-70
2021/09/24 03:35:42;;;;;;;15.25;3.10;;;;;;;;;;5044092;28;20412;-70
2021/09/24 03:38:08;;;;;;;17.83;3.85;;;;;;;;;;5042113;28;20132;-70
2021/09/24 03:40:35;;;;;;;16.10;2.97;;;;;;;;;;5041679;28;20060;-70
2021/09/24 03:43:01;;;;;;;21.15;3.78;;;;;;;;;;5060083;28;20036;-70
2021/09/24 03:45:28;;;;;;;24.48;3.78;;;;;;;;;;5060630;28;20037;-70
2021/09/24 03:47:54;;;;;;;19.83;3.40;;;;;;;;;;5048421;28;20060;-70
2021/09/24 03:50:21;;;;;;;19.65;3.88;;;;;;;;;;5055404;28;20381;-70
2021/09/24 03:52:47;;;;;;;22.75;3.90;;;;;;;;;;5059981;28;20476;-70
2021/09/24 03:55:13;;;;;;;15.80;3.65;;;;;;;;;;5042996;28;20155;-70
2021/09/24 03:57:39;;;;;;;13.80;3.90;;;;;;;;;;5038969;28;20049;-70
2021/09/24 04:00:06;;;;;;;16.10;3.70;;;;;;;;;;5058513;28;20137;-70
2021/09/24 04:02:32;;;;;;;14.52;3.85;;;;;;;;;;5045239;28;20056;-70
2021/09/24 04:04:58;;;;;;;22.00;4.75;;;;;;;;;;5061569;28;20025;-69
2021/09/24 04:07:25;;;;;;;23.67;5.53;;;;;;;;;;5042015;28;20048;-70
2021/09/24 04:09:51;;;;;;;17.55;4.03;;;;;;;;;;5040547;28;20178;-70
2021/09/24 04:12:17;;;;;;;17.35;4.93;;;;;;;;;;5040924;28;20072;-70
2021/09/24 04:14:43;;;;;;;23.45;4.80;;;;;;;;;;5027720;28;20049;-70
2021/09/24 04:17:10;;;;;;;20.92;5.03;;;;;;;;;;5058696;28;20033;-70
2021/09/24 04:19:36;;;;;;;17.88;4.85;;;;;;;;;;5044588;28;20756;-70
2021/09/24 04:22:02;;;;;;;16.50;4.45;;;;;;;;;;5042950;28;20488;-70
2021/09/24 04:24:29;;;;;;;22.88;4.93;;;;;;;;;;5044771;28;20860;-70
2021/09/24 04:26:55;;;;;;;19.58;4.53;;;;;;;;;;5039710;28;20049;-70
2021/09/24 04:29:21;;;;;;;17.00;4.32;;;;;;;;;;5060985;28;20580;-70
2021/09/24 04:31:48;;;;;;;15.88;4.32;;;;;;;;;;5060870;28;20044;-70
2021/09/24 04:34:14;;;;;;;20.33;4.93;;;;;;;;;;5043625;28;20321;-70
2021/09/24 04:36:40;;;;;;;19.52;4.97;;;;;;;;;;5041336;28;20532;-70
2021/09/24 04:39:07;;;;;;;19.60;4.75;;;;;;;;;;5055566;28;20052;-70
2021/09/24 04:41:33;;;;;;;15.93;5.10;;;;;;;;;;5043257;28;20052;-70
2021/09/24 04:43:59;;;;;;;24.35;5.15;;;;;;;;;;5042338;28;20044;-70
2021/09/24 04:46:25;;;;;;;10.40;4.45;;;;;;;;;;5059284;28;20072;-70
2021/09/24 04:48:51;;;;;;;21.55;6.25;;;;;;;;;;5061928;28;20380;-70
2021/09/24 04:51:17;;;;;;;24.88;5.95;;;;;;;;;;5039567;28;20053;-70
2021/09/24 04:53:44;;;;;;;19.50;5.25;;;;;;;;;;5041654;28;20048;-70
2021/09/24 04:56:10;;;;;;;19.50;4.68;;;;;;;;;;5041656;28;20380;-70
2021/09/24 04:58:36;;;;;;;24.77;5.35;;;;;;;;;;5053700;28;20045;-70
2021/09/24 05:01:02;;;;;;;24.05;4.85;;;;;;;;;;5037011;28;20437;-70
2021/09/24 05:03:28;;;;;;;22.33;5.15;;;;;;;;;;5058167;28;20041;-70
2021/09/24 05:05:55;;;;;;;21.00;5.05;;;;;;;;;;5058840;28;20090;-70
2021/09/24 05:08:21;;;;;;;24.58;5.25;;;;;;;;;;5059004;28;20649;-71
2021/09/24 05:10:47;;;;;;;18.70;4.90;;;;;;;;;;5041756;28;20422;-70
2021/09/24 05:13:13;;;;;;;25.77;5.07;;;;;;;;;;5061035;28;20044;-70
2021/09/24 05:15:39;;;;;;;28.60;6.40;;;;;;;;;;5044434;28;20056;-70
2021/09/24 05:18:06;;;;;;;20.50;5.32;;;;;;;;;;5047780;28;20060;-70
2021/09/24 05:20:33;;;;;;;20.75;5.70;;;;;;;;;;5041975;28;20093;-70
2021/09/24 05:22:59;;;;;;;28.02;5.22;;;;;;;;;;5056819;28;20037;-70
2021/09/24 05:25:25;;;;;;;26.42;5.60;;;;;;;;;;5061204;28;20132;-70
2021/09/24 05:27:52;;;;;;;23.00;5.35;;;;;;;;;;5063545;28;20052;-70
2021/09/24 05:30:18;;;;;;;27.80;6.70;;;;;;;;;;5043107;28;20488;-70
2021/09/24 05:32:45;;;;;;;21.40;5.57;;;;;;;;;;5061676;28;20111;-68
2021/09/24 05:35:11;;;;;;;25.17;5.32;;;;;;;;;;5057671;28;20040;-68
2021/09/24 05:37:38;;;;;;;20.35;6.00;;;;;;;;;;5051129;28;20118;-68
2021/09/24 05:40:05;;;;;;;30.45;7.07;;;;;;;;;;5045476;28;20415;-68
2021/09/24 05:42:31;;;;;;;17.27;5.38;;;;;;;;;;5050426;28;20041;-68
2021/09/24 05:44:58;;;;;;;26.80;6.03;;;;;;;;;;5046736;28;20202;-69
2021/09/24 05:47:24;;;;;;;23.38;6.03;;;;;;;;;;5020612;28;20045;-67
2021/09/24 05:49:50;;;;;;;29.15;6.15;;;;;;;;;;5063256;28;20036;-67
2021/09/24 05:52:16;;;;;;;30.30;8.02;;;;;;;;;;5044336;28;20047;-68
2021/09/24 05:54:42;;;;;;;27.83;7.32;;;;;;;;;;5073827;28;20128;-68
2021/09/24 05:57:09;;;;;;;19.75;5.78;;;;;;;;;;5070629;28;20152;-68
2021/09/24 05:59:35;;;;;;;24.92;6.25;;;;;;;;;;5070036;28;20055;-66
2021/09/24 06:02:01;;;;;;;34.72;7.25;;;;;;;;;;5065553;28;20032;-68
2021/09/24 06:04:27;;;;;;;30.92;7.60;;;;;;;;;;5048465;28;20079;-68
2021/09/24 06:06:53;;;;;;;23.75;8.27;;;;;;;;;;5055660;28;20044;-68
2021/09/24 06:09:19;;;;;;;23.15;8.05;;;;;;;;;;5060154;28;20460;-68
2021/09/24 06:11:46;;;;;;;31.35;8.98;;;;;;;;;;5066401;28;20416;-69
2021/09/24 06:14:12;;;;;;;27.17;9.07;;;;;;;;;;5052482;28;20045;-69
2021/09/24 06:16:39;;;;;;;29.17;9.65;;;;;;;;;;5039990;28;20103;-68
2021/09/24 06:19:05;;;;;;;24.27;9.40;;;;;;;;;;5049076;28;20464;-68
2021/09/24 06:21:31;;;;;;;29.58;10.07;;;;;;;;;;5043041;28;20463;-68
2021/09/24 06:23:58;;;;;;;37.97;9.93;;;;;;;;;;5074936;28;20107;-69
2021/09/24 06:26:25;;;;;;;34.20;10.65;;;;;;;;;;5047285;28;20105;-68
2021/09/24 06:28:51;;;;;;;32.88;11.20;;;;;;;;;;5076012;28;20549;-69
2021/09/24 06:31:17;;;;;;;29.20;10.30;;;;;;;;;;5066582;28;20536;-69
2021/09/24 06:33:43;;;;;;;27.83;10.00;;;;;;;;;;5066326;28;20064;-69
2021/09/24 06:36:10;;;;;;;30.75;10.23;;;;;;;;;;5026506;28;20037;-68
2021/09/24 06:38:37;;;;;;;29.92;9.52;;;;;;;;;;5057286;28;20538;-68
2021/09/24 06:41:03;;;;;;;27.45;9.40;;;;;;;;;;5055629;28;20505;-68
2021/09/24 06:43:30;;;;;;;34.00;8.55;;;;;;;;;;5050461;28;20123;-68
2021/09/24 06:45:56;;;;;;;35.75;9.45;;;;;;;;;;5042549;28;20066;-69
2021/09/24 06:48:23;;;;;;;26.80;8.65;;;;;;;;;;5049284;28;20096;-69
2021/09/24 06:50:49;;;;;;;26.33;8.52;;;;;;;;;;5049198;28;20079;-68
2021/09/24 06:53:15;;;;;;;33.78;9.20;;;;;;;;;;5055676;28;20102;-68
2021/09/24 06:55:41;;;;;;;27.58;7.93;;;;;;;;;;5070517;28;20067;-69
2021/09/24 06:58:07;;;;;;;25.83;7.70;;;;;;;;;;5068440;28;20071;-70
2021/09/24 07:00:33;;;;;;;28.02;7.88;;;;;;;;;;5067773;28;20449;-68
2021/09/24 07:03:00;;;;;;;22.25;7.63;;;;;;;;;;5070246;28;20114;-69
2021/09/24 07:05:26;;;;;;;28.75;8.45;;;;;;;;;;5045082;28;20128;-70
2021/09/24 07:07:52;;;;;;;29.73;8.55;;;;;;;;;;5041727;28;20144;-70
2021/09/24 07:10:18;;;;;;;27.45;8.50;;;;;;;;;;5051557;28;20040;-69
2021/09/24 07:12:45;;;;;;;28.15;7.80;;;;;;;;;;5040532;28;20119;-68
2021/09/24 07:15:11;;;;;;;24.83;7.15;;;;;;;;;;5051943;28;20099;-68
2021/09/24 07:17:38;;;;;;;25.00;7.88;;;;;;;;;;5040235;28;20049;-68
2021/09/24 07:20:05;;;;;;;26.95;7.80;;;;;;;;;;5065009;28;20032;-68
2021/09/24 07:22:31;;;;;;;23.92;8.27;;;;;;;;;;5059719;28;20499;-68
2021/09/24 07:24:58;;;;;;;26.17;9.20;;;;;;;;;;5035942;28;20377;-68
2021/09/24 07:27:24;;;;;;;22.98;8.57;;;;;;;;;;5040211;28;20045;-68
2021/09/24 07:29:51;;;;;;;24.58;8.65;;;;;;;;;;5068632;28;20090;-68
2021/09/24 07:32:17;;;;;;;22.08;8.32;;;;;;;;;;5071871;28;20100;-68
2021/09/24 07:34:43;;;;;;;22.02;7.93;;;;;;;;;;5036563;28;20041;-67
2021/09/24 07:37:10;;;;;;;23.17;8.02;;;;;;;;;;5070331;28;20095;-68
2021/09/24 07:39:36;;;;;;;24.80;8.60;;;;;;;;;;5060375;28;20071;-68
2021/09/24 07:42:03;;;;;;;26.45;8.38;;;;;;;;;;5065684;28;20087;-68
2021/09/24 07:44:29;;;;;;;25.73;9.18;;;;;;;;;;5043541;28;20036;-68
2021/09/24 07:46:55;;;;;;;23.25;8.57;;;;;;;;;;5064644;28;20052;-68
2021/09/24 07:49:21;;;;;;;18.67;8.00;;;;;;;;;;5042289;28;20522;-68
2021/09/24 07:51:47;;;;;;;24.08;9.20;;;;;;;;;;5056777;28;20036;-68
2021/09/24 07:54:14;;;;;;;23.48;8.40;;;;;;;;;;5039546;28;20044;-68
2021/09/24 07:56:40;;;;;;;29.27;8.52;;;;;;;;;;5058528;28;20116;-68
2021/09/24 07:59:07;;;;;;;25.52;8.00;;;;;;;;;;5039649;28;20041;-68
2021/09/24 08:01:34;;;;;;;28.25;9.02;;;;;;;;;;5047843;28;20146;-67
2021/09/24 08:04:00;;;;;;;24.30;8.98;;;;;;;;;;5037485;28;20170;-67
2021/09/24 08:06:26;;;;;;;23.77;9.20;;;;;;;;;;5068834;28;20450;-67
2021/09/24 08:08:52;;;;;;;28.70;10.32;;;;;;;;;;5049758;28;20052;-67
2021/09/24 08:11:19;;;;;;;28.60;10.35;;;;;;;;;;5049861;28;20075;-67
2021/09/24 08:13:45;;;;;;;25.00;9.55;;;;;;;;;;5036081;28;20207;-68
2021/09/24 08:16:12;;;;;;;25.58;10.30;;;;;;;;;;5049222;28;20045;-67
2021/09/24 08:18:38;;;;;;;25.85;9.95;;;;;;;;;;5059268;28;20114;-67
2021/09/24 08:21:05;;;;;;;27.13;10.45;;;;;;;;;;5032948;28;20504;-67
2021/09/24 08:23:31;;;;;;;26.05;10.23;;;;;;;;;;5035475;28;20419;-67
2021/09/24 08:25:57;;;;;;;32.45;10.82;;;;;;;;;;5046129;28;20056;-68
2021/09/24 08:28:23;;;;;;;29.30;11.68;;;;;;;;;;5047343;28;20057;-67
2021/09/24 08:30:50;;;;;;;28.00;10.60;;;;;;;;;;5052779;28;20045;-67
2021/09/24 08:33:16;;;;;;;35.90;12.52;;;;;;;;;;5053298;28;20044;-67
2021/09/24 08:35:43;;;;;;;29.48;11.77;;;;;;;;;;5058215;28;20460;-67
2021/09/24 08:38:10;;;;;;;30.38;12.13;;;;;;;;;;5063570;28;20403;-67
2021/09/24 08:40:37;;;;;;;31.50;10.60;;;;;;;;;;5053560;28;20080;-67
2021/09/24 08:43:03;;;;;;;28.48;11.40;;;;;;;;;;5053095;28;20135;-67
2021/09/24 08:45:30;;;;;;;33.03;11.30;;;;;;;;;;5054722;28;20060;-67
2021/09/24 08:47:57;;;;;;;25.58;10.90;;;;;;;;;;5037613;28;20037;-67
2021/09/24 08:50:25;;;;;;;30.38;11.73;;;;;;;;;;5045201;28;20178;-67
2021/09/24 08:52:51;;;;;;;27.58;11.70;;;;;;;;;;5053260;28;20048;-67
2021/09/24 08:55:18;;;;;;;38.22;12.40;;;;;;;;;;5033949;28;20515;-67
2021/09/24 08:57:44;;;;;;;28.67;11.05;;;;;;;;;;5045838;28;20738;-67
2021/09/24 09:00:11;;;;;;;29.30;12.02;;;;;;;;;;5058369;28;20464;-67
2021/09/24 09:02:51;;;;;;;35.88;12.30;;;;;;;;;;5049983;28;20492;-67
2021/09/24 09:05:18;;;;;;;30.05;11.40;;;;;;;;;;5066365;28;20041;-67
2021/09/24 09:07:45;;;;;;;28.60;11.98;;;;;;;;;;5043958;28;20051;-67
2021/09/24 09:10:11;;;;;;;27.35;11.00;;;;;;;;;;5043340;28;20045;-67
2021/09/24 09:12:38;;;;;;;28.73;10.63;;;;;;;;;;5033612;28;20047;-67
2021/09/24 09:15:09;;;;;;;29.45;10.10;;;;;;;;;;5065491;28;20040;-67
2021/09/24 09:17:38;;;;;;;25.92;10.73;;;;;;;;;;5058321;28;20064;-67
2021/09/24 09:20:08;;;;;;;19.63;7.95;;;;;;;;;;5047794;28;20767;-67
2021/09/24 09:22:34;;;;;;;32.83;9.48;;;;;;;;;;5051646;28;20045;-67
2021/09/24 09:25:01;;;;;;;22.92;8.75;;;;;;;;;;5066180;28;20443;-67
2021/09/24 09:27:28;;;;;;;19.83;8.45;;;;;;;;;;5042720;28;20107;-67
2021/09/24 09:30:01;;;;;;;22.83;8.43;;;;;;;;;;5060566;28;20451;-67
2021/09/24 09:32:28;;;;;;;25.13;8.57;;;;;;;;;;5046183;28;20167;-68
2021/09/24 09:34:54;;;;;;;20.38;9.50;;;;;;;;;;5047491;28;20116;-68
2021/09/24 09:37:21;;;;;;;20.55;8.07;;;;;;;;;;5049908;28;20056;-69
2021/09/24 09:40:01;;;;;;;16.88;7.50;;;;;;;;;;5041012;28;20106;-68
2021/09/24 09:42:33;;;;;;;13.80;6.90;;;;;;;;;;5040443;28;20044;-68
2021/09/24 09:45:00;;;;;;;19.52;7.30;;;;;;;;;;5067007;28;20040;-68
2021/09/24 09:47:33;;;;;;;16.33;7.10;;;;;;;;;;5063831;28;20076;-68
2021/09/24 09:50:04;;;;;;;17.88;7.25;;;;;;;;;;5032898;28;20519;-68
2021/09/24 09:52:33;;;;;;;18.73;6.38;;;;;;;;;;5049166;28;20120;-68
2021/09/24 09:55:00;;;;;;;27.30;7.65;;;;;;;;;;5061690;28;20095;-68
2021/09/24 09:57:27;;;;;;;22.17;6.43;;;;;;;;;;5064628;28;20052;-68
2021/09/24 09:59:54;;;;;;;19.33;7.25;;;;;;;;;;5044523;28;20488;-68
2021/09/24 10:02:22;;;;;;;13.77;6.43;;;;;;;;;;5044942;28;20098;-68
2021/09/24 10:04:52;;;;;;;14.02;6.10;;;;;;;;;;5065466;28;20063;-68
2021/09/24 10:07:23;;;;;;;19.02;6.20;;;;;;;;;;5043692;28;20099;-68
2021/09/24 10:10:01;;;;;;;16.73;5.95;;;;;;;;;;5037583;28;20222;-68
2021/09/24 10:12:27;;;;;;;16.67;5.53;;;;;;;;;;5038980;28;20052;-69
2021/09/24 10:14:54;;;;;;;14.40;5.30;;;;;;;;;;5023693;28;20040;-68
2021/09/24 10:17:21;;;;;;;14.20;5.50;;;;;;;;;;5038684;28;20063;-68
2021/09/24 10:19:47;;;;;;;19.48;5.55;;;;;;;;;;5035241;28;20037;-68
2021/09/24 10:22:14;;;;;;;14.90;5.65;;;;;;;;;;5067228;28;20453;-68
2021/09/24 10:24:41;;;;;;;19.52;5.45;;;;;;;;;;5062165;28;20056;-68
2021/09/24 10:27:11;;;;;;;20.15;5.10;;;;;;;;;;5046547;28;20492;-68
2021/09/24 10:29:41;;;;;;;17.45;6.10;;;;;;;;;;5037590;28;20049;-68
2021/09/24 10:32:13;;;;;;;12.88;4.95;;;;;;;;;;5033975;28;20068;-63
2021/09/24 10:34:56;;;;;;;13.13;4.75;;;;;;;;;;5069010;28;20055;-63
2021/09/24 10:37:24;;;;;;;13.00;5.45;;;;;;;;;;5054790;28;20045;-63
2021/09/24 10:39:57;;;;;;;11.73;4.20;;;;;;;;;;5035577;28;20053;-63
2021/09/24 10:42:34;;;;;;;12.70;4.10;;;;;;;;;;5063400;28;20090;-64
2021/09/24 10:45:00;;;;;;;18.92;4.72;;;;;;;;;;5064236;28;20493;-63
2021/09/24 10:47:45;;;;;;;17.67;5.70;;;;;;;;;;5069607;28;20036;-64
2021/09/24 10:50:30;;;;;;;11.30;4.40;;;;;;;;;;5067337;28;20040;-63
2021/09/24 10:53:09;;;;;;;15.13;4.35;;;;;;;;;;5059923;28;20060;-63
2021/09/24 10:55:38;;;;;;;15.70;3.92;;;;;;;;;;5059924;28;20132;-63
2021/09/24 10:58:04;;;;;;;11.38;3.60;;;;;;;;;;5070594;28;20114;-63
2021/09/24 11:00:32;;;;;;;12.18;3.92;;;;;;;;;;5042331;28;20499;-63
2021/09/24 11:03:09;;;;;;;11.90;3.40;;;;;;;;;;5037033;28;20076;-63
2021/09/24 11:05:55;;;;;;;12.25;3.33;;;;;;;;;;5062785;28;20052;-64
2021/09/24 11:08:34;;;;;;;13.50;3.00;;;;;;;;;;5064442;28;21831;-63
2021/09/24 11:11:02;;;;;;;8.88;2.58;;;;;;;;;;5062395;28;20037;-64
2021/09/24 11:13:28;;;;;;;10.27;2.85;;;;;;;;;;5039515;28;20128;-64
2021/09/24 11:15:59;;;;;;;14.60;2.78;;;;;;;;;;5065057;28;20110;-64
2021/09/24 11:18:45;;;;;;;13.50;2.97;;;;;;;;;;5066279;28;20052;-64
2021/09/24 11:21:11;;;;;;;11.18;3.10;;;;;;;;;;5047937;28;20084;-63
2021/09/24 11:23:38;;;;;;;9.88;3.13;;;;;;;;;;5051851;28;20094;-63
2021/09/24 11:26:08;;;;;;;6.93;2.70;;;;;;;;;;5063415;28;20055;-64
2021/09/24 11:28:34;;;;;;;13.32;3.55;;;;;;;;;;5066104;28;20055;-64
2021/09/24 11:31:01;;;;;;;10.43;3.00;;;;;;;;;;5050898;28;20120;-64
2021/09/24 11:33:41;;;;;;;10.32;3.50;;;;;;;;;;5045174;28;20072;-63
2021/09/24 11:36:08;;;;;;;8.07;2.78;;;;;;;;;;5046313;28;20048;-64
2021/09/24 11:38:34;;;;;;;8.65;3.13;;;;;;;;;;5060603;28;20616;-64
2021/09/24 11:41:01;;;;;;;8.75;2.63;;;;;;;;;;5061260;28;20063;-63
2021/09/24 11:43:28;;;;;;;13.88;3.50;;;;;;;;;;5060492;28;20143;-64
2021/09/24 11:45:55;;;;;;;7.47;2.90;;;;;;;;;;5039246;28;20097;-64
2021/09/24 11:48:32;;;;;;;10.98;3.72;;;;;;;;;;5038052;28;20441;-64
2021/09/24 11:51:09;;;;;;;10.73;2.95;;;;;;;;;;5061515;28;20401;-64
2021/09/24 11:57:15;;;;;;;9.98;3.30;;;;;;;;;;5125283;27;20696;-64
2021/09/24 11:59:41;;;;;;;10.48;3.20;;;;;;;;;;5081143;28;20055;-65
2021/09/24 12:02:07;;;;;;;11.73;4.03;;;;;;;;;;5104431;28;20127;-65
2021/09/24 12:04:34;;;;;;;10.25;3.40;;;;;;;;;;5104957;28;20111;-65
2021/09/24 12:07:00;;;;;;;11.48;3.58;;;;;;;;;;5085182;28;20055;-65
2021/09/24 12:09:26;;;;;;;9.35;2.80;;;;;;;;;;5101895;28;20063;-65
2021/09/24 12:11:54;;;;;;;8.95;3.22;;;;;;;;;;5085915;28;20390;-66
2021/09/24 12:14:21;;;;;;;8.50;3.13;;;;;;;;;;5099764;28;20047;-65
2021/09/24 12:16:49;;;;;;;11.93;3.67;;;;;;;;;;5076096;28;20048;-65
2021/09/24 12:19:17;;;;;;;8.65;3.20;;;;;;;;;;5087556;28;20474;-65
2021/09/24 12:21:48;;;;;;;9.52;3.35;;;;;;;;;;5082643;28;20136;-65
2021/09/24 12:24:14;;;;;;;10.80;3.95;;;;;;;;;;5099815;28;20458;-65
2021/09/24 12:26:42;;;;;;;10.10;3.60;;;;;;;;;;5104973;28;20083;-65
2021/09/24 12:29:10;;;;;;;9.93;3.10;;;;;;;;;;5084544;28;20105;-65
2021/09/24 12:31:36;;;;;;;9.40;3.72;;;;;;;;;;5082048;28;20131;-65
2021/09/24 12:34:04;;;;;;;12.93;3.55;;;;;;;;;;5100723;28;20042;-65
2021/09/24 12:36:30;;;;;;;9.55;3.22;;;;;;;;;;5080911;28;20376;-65
2021/09/24 12:39:12;;;;;;;17.35;4.03;;;;;;;;;;5100028;28;20445;-65
2021/09/24 12:41:39;;;;;;;16.93;4.13;;;;;;;;;;5090030;28;20166;-64
2021/09/24 12:44:06;;;;;;;8.93;3.92;;;;;;;;;;5085378;28;20044;-66
2021/09/24 12:46:39;;;;;;;10.55;3.10;;;;;;;;;;5066406;28;20074;-66
2021/09/24 12:49:05;;;;;;;8.88;2.97;;;;;;;;;;5070312;28;20179;-64
2021/09/24 12:51:31;;;;;;;8.75;3.42;;;;;;;;;;5089030;28;20194;-65
2021/09/24 12:53:58;;;;;;;10.93;3.15;;;;;;;;;;5081461;28;20062;-65
2021/09/24 12:56:24;;;;;;;12.52;3.17;;;;;;;;;;5084737;28;20044;-65
2021/09/24 12:58:57;;;;;;;7.97;2.47;;;;;;;;;;5103282;28;20387;-65
2021/09/24 13:01:24;;;;;;;12.10;3.03;;;;;;;;;;5097826;28;20036;-64
2021/09/24 13:03:52;;;;;;;8.38;3.03;;;;;;;;;;5103144;28;20116;-65
2021/09/24 13:06:19;;;;;;;7.28;2.90;;;;;;;;;;5102191;28;20048;-65
2021/09/24 13:08:45;;;;;;;8.70;2.30;;;;;;;;;;5089742;28;20361;-65
2021/09/24 13:11:11;;;;;;;8.82;2.22;;;;;;;;;;5090452;28;20047;-66
2021/09/24 13:13:38;;;;;;;6.78;2.25;;;;;;;;;;5072089;28;20507;-66
2021/09/24 13:16:04;;;;;;;10.85;2.50;;;;;;;;;;5084085;28;20050;-67
2021/09/24 13:18:31;;;;;;;8.50;2.47;;;;;;;;;;5088617;28;20564;-66
2021/09/24 13:20:57;;;;;;;6.72;2.15;;;;;;;;;;5071280;28;20395;-66
2021/09/24 13:23:23;;;;;;;8.30;2.30;;;;;;;;;;5071451;28;20543;-66
2021/09/24 13:25:51;;;;;;;5.85;2.08;;;;;;;;;;5088723;28;20043;-66
2021/09/24 13:28:17;;;;;;;7.28;2.58;;;;;;;;;;5089541;28;20044;-67
2021/09/24 13:30:44;;;;;;;9.80;2.15;;;;;;;;;;5086344;28;20036;-66
2021/09/24 13:33:11;;;;;;;8.52;2.63;;;;;;;;;;5088546;28;20124;-66
2021/09/24 13:35:38;;;;;;;6.15;2.05;;;;;;;;;;5087224;28;20471;-66
2021/09/24 13:38:04;;;;;;;6.15;2.13;;;;;;;;;;5087816;28;20036;-67
2021/09/24 13:40:30;;;;;;;6.75;2.60;;;;;;;;;;5087338;28;20046;-66
2021/09/24 13:42:56;;;;;;;9.50;2.47;;;;;;;;;;5087983;28;20047;-66
2021/09/24 13:45:22;;;;;;;10.45;2.50;;;;;;;;;;5083877;28;20184;-66
2021/09/24 13:47:49;;;;;;;8.10;2.35;;;;;;;;;;5082751;28;20527;-66
2021/09/24 13:50:15;;;;;;;9.57;3.45;;;;;;;;;;5070482;28;20364;-66
2021/09/24 13:52:41;;;;;;;8.55;2.55;;;;;;;;;;5086804;28;20436;-66
2021/09/24 13:55:08;;;;;;;10.02;3.00;;;;;;;;;;5085547;28;20048;-66
2021/09/24 13:57:34;;;;;;;6.60;2.60;;;;;;;;;;5085953;28;20373;-66
2021/09/24 14:00:00;;;;;;;9.95;2.35;;;;;;;;;;5087560;28;20043;-66
2021/09/24 14:02:26;;;;;;;6.25;2.45;;;;;;;;;;5068753;28;20554;-66
2021/09/24 14:04:53;;;;;;;6.70;2.22;;;;;;;;;;5066147;28;20101;-66
2021/09/24 14:07:19;;;;;;;6.03;2.40;;;;;;;;;;5053981;28;20051;-66
2021/09/24 14:09:45;;;;;;;9.68;2.42;;;;;;;;;;5070240;28;20036;-66
2021/09/24 14:12:11;;;;;;;12.55;2.75;;;;;;;;;;5089004;28;20044;-66
2021/09/24 14:14:37;;;;;;;6.43;2.50;;;;;;;;;;5081466;28;20071;-66
2021/09/24 14:17:04;;;;;;;11.93;2.90;;;;;;;;;;5088641;28;20531;-66
2021/09/24 14:19:30;;;;;;;9.48;3.30;;;;;;;;;;5086568;28;20082;-67
2021/09/24 14:21:56;;;;;;;8.65;3.28;;;;;;;;;;5069026;28;20047;-66
2021/09/24 14:24:22;;;;;;;6.45;2.28;;;;;;;;;;5064384;28;20064;-66
2021/09/24 14:26:49;;;;;;;11.30;3.42;;;;;;;;;;5086239;28;20082;-67
2021/09/24 14:29:16;;;;;;;7.35;2.70;;;;;;;;;;5069304;28;20097;-66
2021/09/24 14:31:42;;;;;;;10.55;2.92;;;;;;;;;;5069799;28;20039;-66
2021/09/24 14:34:08;;;;;;;9.93;2.78;;;;;;;;;;5070269;28;20079;-66